Startpagina
METAR-TAF:

METAR-TAF

Vliegvelden :

Curaçao International Airport

Curaçao, Nederlandse Antillen

breedte: 12-12N, lengte: 068-58W, hoogte: 9 m

Actueel weer

Dit bericht is 56 minuten geleden gemaakt, om 13:00 UTC
Wind 12 kt uit het oosten
Temperatuur 30°C
Vochtigheid 66%
Druk 1013 hPa
Zicht 10 km of meer
Verspreide wolken op 2000 ft

METAR: TNCC 141300Z 10012KT 9999 SCT020 30/23 Q1013 NOSIG

Tijdstip: 09:56 (13:56 UTC)

Verwachting

Dit bericht is 4 uur en het 26 minuten geleden gemaakt, om 09:30 UTC
Verwachting geldig van 14 om 12 UTC tot 15 om 12 UTC
Wind 12 kt uit het oostzuidoosten
Zicht 10 km of meer
Verspreide wolken op 2000 ft
Kans 30% :
Tijdelijke
van 14 om 12 UTC tot 14 om 16 UTC
Gebroken wolken op 1500 ft

TAF: TNCC 140930Z 1412/1512 11012KT 9999 SCT020 PROB30 TEMPO 1412/1416 BKN015

Waarnemingen en weersverwachtingen van meer dan 4000 vliegvelden (METAR en TAF).

De beschikbare stations zijn de gele en rode punten op de kaart.

Ga met uw muis naar het station om de naam te zien.

Klik dan om waarnemingen en weersverwachtingen te zien.

kaart wijzigen: klik op de groene knoppen met een zwart kruis om in te zoomen, op de groene knop met een streepje om uit te zoomen of op de groene pijlen voor aangrenzende kaarten.


METAR-TAF: